createdAt,value
2023-05-15T00:00:47.752Z,1007.85
2023-05-15T00:01:48.097Z,1007.85
2023-05-15T00:02:48.528Z,1007.80
2023-05-15T00:03:48.752Z,1007.79
2023-05-15T00:04:49.096Z,1007.75
2023-05-15T00:05:49.282Z,1007.79
2023-05-15T00:06:49.614Z,1007.75
2023-05-15T00:07:49.823Z,1007.78
2023-05-15T00:08:50.158Z,1007.73
2023-05-15T00:09:50.475Z,1007.77
2023-05-15T00:11:00.967Z,1007.65
2023-05-15T00:11:52.025Z,1007.72
2023-05-15T00:12:51.276Z,1007.68
2023-05-15T00:13:51.622Z,1007.65
2023-05-15T00:14:51.942Z,1007.66
2023-05-15T00:15:52.266Z,1007.65
2023-05-15T00:16:52.579Z,1007.70
2023-05-15T00:17:52.976Z,1007.66
2023-05-15T00:18:53.197Z,1007.68
2023-05-15T00:19:53.488Z,1007.65
2023-05-15T00:20:53.823Z,1007.66
2023-05-15T00:21:54.141Z,1007.60
2023-05-15T00:22:54.478Z,1007.57
2023-05-15T00:23:54.782Z,1007.64
2023-05-15T00:24:55.105Z,1007.63
2023-05-15T00:25:55.449Z,1007.54
2023-05-15T00:26:55.863Z,1007.56
2023-05-15T00:27:56.051Z,1007.53
2023-05-15T00:28:56.370Z,1007.54
2023-05-15T00:29:56.672Z,1007.51
2023-05-15T00:30:57.089Z,1007.48
2023-05-15T00:31:57.272Z,1007.54
2023-05-15T00:32:57.629Z,1007.51
2023-05-15T00:33:57.927Z,1007.59
2023-05-15T00:34:58.249Z,1007.50
2023-05-15T00:35:58.539Z,1007.54
2023-05-15T00:36:58.883Z,1007.57
2023-05-15T00:37:59.202Z,1007.53
2023-05-15T00:38:59.511Z,1007.50
2023-05-15T00:39:59.846Z,1007.57
2023-05-15T00:41:00.161Z,1007.49
2023-05-15T00:42:02.082Z,1007.52
2023-05-15T00:43:00.724Z,1007.52
2023-05-15T00:44:01.129Z,1007.44
2023-05-15T00:45:01.318Z,1007.48
2023-05-15T00:46:01.645Z,1007.43
2023-05-15T00:47:02.014Z,1007.44
2023-05-15T00:48:02.286Z,1007.44
2023-05-15T00:49:02.594Z,1007.42
2023-05-15T00:50:02.942Z,1007.39
2023-05-15T00:51:03.223Z,1007.38
2023-05-15T00:52:03.559Z,1007.41
2023-05-15T00:53:03.888Z,1007.36
2023-05-15T00:54:04.244Z,1007.41
2023-05-15T00:55:04.555Z,1007.36
2023-05-15T00:56:04.869Z,1007.35
2023-05-15T00:57:05.154Z,1007.32
2023-05-15T00:58:05.475Z,1007.34
2023-05-15T00:59:05.788Z,1007.34
2023-05-15T01:00:06.177Z,1007.32
2023-05-15T01:01:08.314Z,1007.31
2023-05-15T01:02:06.686Z,1007.29
2023-05-15T01:03:07.156Z,1007.21
2023-05-15T01:04:07.332Z,1007.25
2023-05-15T01:05:07.648Z,1007.19
2023-05-15T01:06:07.929Z,1007.15
2023-05-15T01:07:08.284Z,1007.17
2023-05-15T01:08:08.636Z,1007.13
2023-05-15T01:09:08.931Z,1007.10
2023-05-15T01:10:09.242Z,1007.09
2023-05-15T01:11:09.566Z,1007.10
2023-05-15T01:12:09.899Z,1007.09
2023-05-15T01:13:10.241Z,1007.10
2023-05-15T01:14:10.533Z,1007.08
2023-05-15T01:15:10.856Z,1007.11
2023-05-15T01:16:11.187Z,1007.14
2023-05-15T01:17:11.527Z,1007.13
2023-05-15T01:18:11.945Z,1007.16
2023-05-15T01:19:12.209Z,1007.07
2023-05-15T01:20:12.478Z,1007.09
2023-05-15T01:21:12.771Z,1007.11
2023-05-15T01:22:13.103Z,1007.06
2023-05-15T01:23:13.461Z,1007.10
2023-05-15T01:24:13.772Z,1007.07
2023-05-15T01:25:14.114Z,1007.05
2023-05-15T01:26:14.455Z,1007.07
2023-05-15T01:27:14.761Z,1007.10
2023-05-15T01:28:15.100Z,1007.06
2023-05-15T01:29:15.420Z,1007.03
2023-05-15T01:30:15.732Z,1007.07
2023-05-15T01:31:16.073Z,1007.09
2023-05-15T01:32:17.833Z,1007.07
2023-05-15T01:33:16.663Z,1007.06
2023-05-15T01:34:16.985Z,1007.09
2023-05-15T01:35:17.290Z,1007.14
2023-05-15T01:36:17.651Z,1007.14
2023-05-15T01:37:17.970Z,1007.12
2023-05-15T01:38:18.277Z,1007.19
2023-05-15T01:39:18.583Z,1007.20
2023-05-15T01:40:18.910Z,1007.11
2023-05-15T01:41:19.261Z,1007.14
2023-05-15T01:42:19.554Z,1007.13
2023-05-15T01:43:19.865Z,1007.08
2023-05-15T01:44:20.217Z,1007.10
2023-05-15T01:45:20.567Z,1007.10
2023-05-15T01:46:20.865Z,1007.07
2023-05-15T01:47:21.249Z,1007.01
2023-05-15T01:48:21.474Z,1007.06
2023-05-15T01:49:21.826Z,1006.99
2023-05-15T01:50:22.138Z,1007.06
2023-05-15T01:51:22.450Z,1007.05
2023-05-15T01:52:22.729Z,1007.01
2023-05-15T01:53:23.100Z,1006.95
2023-05-15T01:54:23.452Z,1006.97
2023-05-15T01:55:23.827Z,1006.93
2023-05-15T01:56:23.893Z,1006.90
2023-05-15T01:57:24.189Z,1006.90
2023-05-15T01:58:24.507Z,1006.90
2023-05-15T01:59:24.874Z,1006.93
2023-05-15T02:00:25.105Z,1006.93
2023-05-15T02:01:25.447Z,1006.95
2023-05-15T02:02:25.829Z,1006.98
2023-05-15T02:03:26.130Z,1007.00
2023-05-15T02:04:26.354Z,1006.92
2023-05-15T02:05:26.993Z,1006.98
2023-05-15T02:06:26.945Z,1006.99
2023-05-15T02:07:27.293Z,1007.00
2023-05-15T02:08:27.585Z,1007.00
2023-05-15T02:09:27.897Z,1006.92
2023-05-15T02:10:28.253Z,1006.91
2023-05-15T02:11:28.582Z,1006.90
2023-05-15T02:12:28.880Z,1006.90
2023-05-15T02:13:29.214Z,1006.90
2023-05-15T02:14:29.528Z,1006.88
2023-05-15T02:15:29.872Z,1006.87
2023-05-15T02:16:30.187Z,1006.87
2023-05-15T02:17:30.515Z,1006.88
2023-05-15T02:18:30.842Z,1006.86
2023-05-15T02:19:31.164Z,1006.83
2023-05-15T02:20:31.458Z,1006.85
2023-05-15T02:21:31.782Z,1006.84
2023-05-15T02:22:32.132Z,1006.85
2023-05-15T02:23:32.452Z,1006.83
2023-05-15T02:24:32.759Z,1006.83
2023-05-15T02:25:33.070Z,1006.81
2023-05-15T02:26:33.391Z,1006.83
2023-05-15T02:27:33.726Z,1006.85
2023-05-15T02:28:34.035Z,1006.81
2023-05-15T02:29:34.347Z,1006.75
2023-05-15T02:30:34.659Z,1006.77
2023-05-15T02:31:35.024Z,1006.73
2023-05-15T02:32:35.369Z,1006.71
2023-05-15T02:33:35.642Z,1006.76
2023-05-15T02:34:35.979Z,1006.69
2023-05-15T02:35:36.275Z,1006.71
2023-05-15T02:36:36.626Z,1006.67
2023-05-15T02:37:36.945Z,1006.70
2023-05-15T02:38:37.243Z,1006.65
2023-05-15T02:39:37.546Z,1006.70
2023-05-15T02:40:37.870Z,1006.66
2023-05-15T02:41:38.211Z,1006.64
2023-05-15T02:42:38.537Z,1006.59
2023-05-15T02:43:38.851Z,1006.55
2023-05-15T02:44:39.213Z,1006.58
2023-05-15T02:45:39.614Z,1006.53
2023-05-15T02:46:39.811Z,1006.58
2023-05-15T02:47:40.228Z,1006.60
2023-05-15T02:48:40.435Z,1006.57
2023-05-15T02:49:40.750Z,1006.59
2023-05-15T02:50:41.102Z,1006.57
2023-05-15T02:51:41.423Z,1006.61
2023-05-15T02:52:41.746Z,1006.52
2023-05-15T02:53:42.076Z,1006.58
2023-05-15T02:54:42.400Z,1006.59
2023-05-15T02:55:42.772Z,1006.49
2023-05-15T02:56:42.980Z,1006.50
2023-05-15T02:57:43.324Z,1006.49
2023-05-15T02:58:43.650Z,1006.45
2023-05-15T02:59:43.992Z,1006.47
2023-05-15T03:00:44.345Z,1006.48
2023-05-15T03:01:44.611Z,1006.42
2023-05-15T03:02:44.857Z,1006.39
2023-05-15T03:03:45.225Z,1006.42
2023-05-15T03:04:45.447Z,1006.39
2023-05-15T03:05:45.690Z,1006.37
2023-05-15T03:06:45.917Z,1006.38
2023-05-15T03:07:46.136Z,1006.34
2023-05-15T03:08:46.499Z,1006.38
2023-05-15T03:09:46.708Z,1006.35
2023-05-15T03:10:47.087Z,1006.32
2023-05-15T03:11:47.437Z,1006.31
2023-05-15T03:12:47.670Z,1006.32
2023-05-15T03:13:48.016Z,1006.35
2023-05-15T03:14:48.242Z,1006.35
2023-05-15T03:15:48.470Z,1006.33
2023-05-15T03:16:48.710Z,1006.29
2023-05-15T03:17:49.095Z,1006.36
2023-05-15T03:18:49.393Z,1006.29
2023-05-15T03:19:49.593Z,1006.36
2023-05-15T03:20:49.932Z,1006.36
2023-05-15T03:21:50.292Z,1006.36
2023-05-15T03:22:50.670Z,1006.35
2023-05-15T03:23:50.876Z,1006.39
2023-05-15T03:24:51.095Z,1006.36
2023-05-15T03:25:51.466Z,1006.39
2023-05-15T03:26:51.692Z,1006.38
2023-05-15T03:27:52.079Z,1006.41
2023-05-15T03:28:52.298Z,1006.33
2023-05-15T03:29:52.502Z,1006.39
2023-05-15T03:30:52.845Z,1006.38
2023-05-15T03:31:53.267Z,1006.37
2023-05-15T03:32:53.547Z,1006.39
2023-05-15T03:33:53.791Z,1006.34
2023-05-15T03:34:54.147Z,1006.30
2023-05-15T03:35:54.373Z,1006.27
2023-05-15T03:36:54.730Z,1006.23
2023-05-15T03:37:54.947Z,1006.25
2023-05-15T03:38:55.314Z,1006.18
2023-05-15T03:39:55.547Z,1006.22
2023-05-15T03:40:55.772Z,1006.24
2023-05-15T03:41:56.162Z,1006.21
2023-05-15T03:42:56.373Z,1006.23
2023-05-15T03:43:56.723Z,1006.25
2023-05-15T03:44:56.994Z,1006.12
2023-05-15T03:45:57.228Z,1006.14
2023-05-15T03:46:57.585Z,1006.15
2023-05-15T03:47:57.798Z,1006.12
2023-05-15T03:48:57.992Z,1006.14
2023-05-15T03:49:58.230Z,1006.11
2023-05-15T03:50:58.490Z,1006.09
2023-05-15T03:51:58.845Z,1006.12
2023-05-15T03:52:58.992Z,1006.08
2023-05-15T03:53:59.191Z,1006.02
2023-05-15T03:54:59.443Z,1006.06
2023-05-15T03:55:59.713Z,1006.04
2023-05-15T03:57:00.031Z,1006.09
2023-05-15T03:58:00.221Z,1006.08
2023-05-15T03:59:00.457Z,1006.12
2023-05-15T04:00:00.711Z,1006.10
2023-05-15T04:01:00.993Z,1006.15
2023-05-15T04:02:04.849Z,1006.09
2023-05-15T04:03:01.536Z,1006.10
2023-05-15T04:04:01.780Z,1006.10
2023-05-15T04:05:02.113Z,1006.10
2023-05-15T04:06:02.336Z,1006.04
2023-05-15T04:07:02.589Z,1006.05
2023-05-15T04:08:02.809Z,1006.04
2023-05-15T04:09:03.037Z,1006.08
2023-05-15T04:10:03.290Z,1006.02
2023-05-15T04:11:03.520Z,1006.01
2023-05-15T04:12:03.756Z,1006.06
2023-05-15T04:13:04.028Z,1006.02
2023-05-15T04:14:04.249Z,1005.86
2023-05-15T04:15:04.491Z,1005.94
2023-05-15T04:16:04.766Z,1005.97
2023-05-15T04:17:04.972Z,1005.94
2023-05-15T04:18:05.296Z,1005.89
2023-05-15T04:19:05.550Z,1005.92
2023-05-15T04:20:05.767Z,1005.85
2023-05-15T04:21:06.081Z,1005.95
2023-05-15T04:22:14.132Z,1005.91
2023-05-15T04:23:06.711Z,1005.94
2023-05-15T04:24:06.926Z,1005.92
2023-05-15T04:25:07.206Z,1005.92
2023-05-15T04:26:07.414Z,1005.84
2023-05-15T04:27:07.703Z,1005.93
2023-05-15T04:28:08.070Z,1005.88
2023-05-15T04:29:08.280Z,1005.87
2023-05-15T04:30:08.659Z,1005.82
2023-05-15T04:31:08.866Z,1005.85
2023-05-15T04:32:09.154Z,1005.85
2023-05-15T04:33:09.410Z,1005.88
2023-05-15T04:34:09.642Z,1005.89
2023-05-15T04:35:09.913Z,1005.86
2023-05-15T04:36:10.218Z,1005.84
2023-05-15T04:37:10.504Z,1005.78
2023-05-15T04:38:10.773Z,1005.85
2023-05-15T04:39:11.000Z,1005.79
2023-05-15T04:40:11.281Z,1005.76
2023-05-15T04:41:11.491Z,1005.75
2023-05-15T04:42:11.780Z,1005.67
2023-05-15T04:43:11.980Z,1005.71
2023-05-15T04:44:12.218Z,1005.65
2023-05-15T04:45:12.459Z,1005.72
2023-05-15T04:46:12.832Z,1005.66
2023-05-15T04:47:13.015Z,1005.70
2023-05-15T04:48:13.213Z,1005.68
2023-05-15T04:49:13.587Z,1005.67
2023-05-15T04:50:13.830Z,1005.69
2023-05-15T04:51:14.092Z,1005.64
2023-05-15T04:52:14.342Z,1005.72
2023-05-15T04:53:14.582Z,1005.64
2023-05-15T04:54:14.810Z,1005.71
2023-05-15T04:55:15.085Z,1005.72
2023-05-15T04:56:15.328Z,1005.67
2023-05-15T04:57:15.566Z,1005.73
2023-05-15T04:58:15.812Z,1005.68
2023-05-15T04:59:16.048Z,1005.64
2023-05-15T05:00:16.287Z,1005.68
2023-05-15T05:01:16.638Z,1005.67
2023-05-15T05:02:16.838Z,1005.68
2023-05-15T05:03:17.188Z,1005.73
2023-05-15T05:04:17.477Z,1005.69
2023-05-15T05:05:17.730Z,1005.73
2023-05-15T05:06:17.965Z,1005.73
2023-05-15T05:07:18.200Z,1005.73
2023-05-15T05:08:19.385Z,1005.71
2023-05-15T05:09:18.718Z,1005.82
2023-05-15T05:10:19.000Z,1005.74
2023-05-15T05:11:19.269Z,1005.69
2023-05-15T05:12:19.449Z,1005.76
2023-05-15T05:13:19.737Z,1005.72
2023-05-15T05:14:19.979Z,1005.67
2023-05-15T05:15:20.240Z,1005.69
2023-05-15T05:16:20.493Z,1005.73
2023-05-15T05:17:20.698Z,1005.67
2023-05-15T05:18:20.952Z,1005.75
2023-05-15T05:19:21.188Z,1005.70
2023-05-15T05:20:21.418Z,1005.67
2023-05-15T05:21:21.778Z,1005.66
2023-05-15T05:22:22.017Z,1005.71
2023-05-15T05:23:22.248Z,1005.73
2023-05-15T05:24:22.481Z,1005.71
2023-05-15T05:25:22.874Z,1005.73
2023-05-15T05:26:22.978Z,1005.76
2023-05-15T05:27:23.361Z,1005.75
2023-05-15T05:28:23.588Z,1005.73
2023-05-15T05:29:23.860Z,1005.79
2023-05-15T05:30:24.061Z,1005.77
2023-05-15T05:31:24.494Z,1005.76
2023-05-15T05:32:24.874Z,1005.78
2023-05-15T05:33:25.108Z,1005.79
2023-05-15T05:34:25.362Z,1005.78
2023-05-15T05:35:25.822Z,1005.76
2023-05-15T05:36:25.874Z,1005.80
2023-05-15T05:37:26.122Z,1005.79
2023-05-15T05:38:26.357Z,1005.80
2023-05-15T05:39:26.585Z,1005.81
2023-05-15T05:40:26.814Z,1005.79
2023-05-15T05:41:27.189Z,1005.85
2023-05-15T05:42:27.432Z,1005.85
2023-05-15T05:43:27.679Z,1005.71
2023-05-15T05:44:27.894Z,1005.74
2023-05-15T05:45:28.241Z,1005.77
2023-05-15T05:46:28.495Z,1005.72
2023-05-15T05:47:28.761Z,1005.74
2023-05-15T05:48:28.954Z,1005.74
2023-05-15T05:49:29.183Z,1005.76
2023-05-15T05:50:29.412Z,1005.74
2023-05-15T05:51:29.680Z,1005.77
2023-05-15T05:52:29.925Z,1005.79
2023-05-15T05:53:30.151Z,1005.80
2023-05-15T05:54:30.384Z,1005.73
2023-05-15T05:55:30.621Z,1005.76
2023-05-15T05:56:30.867Z,1005.75
2023-05-15T05:57:31.109Z,1005.70
2023-05-15T05:58:31.348Z,1005.72
2023-05-15T05:59:31.656Z,1005.70
2023-05-15T06:00:31.864Z,1005.73
2023-05-15T06:01:32.097Z,1005.70
2023-05-15T06:02:32.398Z,1005.68
2023-05-15T06:03:32.784Z,1005.71
2023-05-15T06:04:33.161Z,1005.78
2023-05-15T06:05:33.282Z,1005.74
2023-05-15T06:06:33.528Z,1005.76
2023-05-15T06:07:33.762Z,1005.75
2023-05-15T06:08:34.171Z,1005.69
2023-05-15T06:09:34.403Z,1005.69
2023-05-15T06:10:34.640Z,1005.74
2023-05-15T06:11:34.910Z,1005.74
2023-05-15T06:12:35.120Z,1005.75
2023-05-15T06:13:35.365Z,1005.73
2023-05-15T06:14:35.731Z,1005.78
2023-05-15T06:15:35.999Z,1005.68
2023-05-15T06:16:36.246Z,1005.66
2023-05-15T06:17:36.489Z,1005.62
2023-05-15T06:18:36.796Z,1005.54
2023-05-15T06:19:37.012Z,1005.48
2023-05-15T06:20:37.263Z,1005.47
2023-05-15T06:21:37.525Z,1005.41
2023-05-15T06:22:37.777Z,1005.45
2023-05-15T06:23:38.031Z,1005.35
2023-05-15T06:24:38.298Z,1005.34
2023-05-15T06:25:38.553Z,1005.29
2023-05-15T06:26:38.821Z,1005.27
2023-05-15T06:27:39.035Z,1005.29
2023-05-15T06:28:39.291Z,1005.25
2023-05-15T06:29:39.521Z,1005.32
2023-05-15T06:30:39.797Z,1005.28
2023-05-15T06:31:39.999Z,1005.27
2023-05-15T06:32:40.285Z,1005.22
2023-05-15T06:33:40.490Z,1005.28
2023-05-15T06:34:40.727Z,1005.32
2023-05-15T06:35:40.976Z,1005.27
2023-05-15T06:36:41.190Z,1005.25
2023-05-15T06:37:41.438Z,1005.27
2023-05-15T06:38:41.669Z,1005.26
2023-05-15T06:39:41.916Z,1005.32
2023-05-15T06:40:42.225Z,1005.27
2023-05-15T06:41:42.444Z,1005.20
2023-05-15T06:42:42.696Z,1005.22
2023-05-15T06:43:42.946Z,1005.14
2023-05-15T06:44:43.234Z,1005.14
2023-05-15T06:45:43.428Z,1005.20
2023-05-15T06:46:43.726Z,1005.11
2023-05-15T06:47:44.058Z,1005.14
2023-05-15T06:48:44.258Z,1005.05
2023-05-15T06:49:44.502Z,1005.05
2023-05-15T06:50:44.738Z,1005.11
2023-05-15T06:51:44.968Z,1005.06
2023-05-15T06:52:45.260Z,1004.99
2023-05-15T06:53:45.510Z,1005.01
2023-05-15T06:54:45.770Z,1005.00
2023-05-15T06:55:46.752Z,1005.02
2023-05-15T06:56:46.334Z,1004.94
2023-05-15T06:57:46.825Z,1004.96
2023-05-15T06:58:46.928Z,1004.99
2023-05-15T06:59:47.190Z,1004.91
2023-05-15T07:00:47.444Z,1004.89
2023-05-15T07:01:47.708Z,1004.91
2023-05-15T07:02:48.030Z,1004.92
2023-05-15T07:03:48.224Z,1004.86
2023-05-15T07:04:48.633Z,1004.88
2023-05-15T07:05:49.625Z,1004.88
2023-05-15T07:06:49.180Z,1004.93
2023-05-15T07:07:49.381Z,1004.86
2023-05-15T07:08:49.756Z,1004.82
2023-05-15T07:09:49.982Z,1004.83
2023-05-15T07:10:50.237Z,1004.76
2023-05-15T07:11:50.496Z,1004.78
2023-05-15T07:12:50.710Z,1004.70
2023-05-15T07:13:52.563Z,1004.74
2023-05-15T07:14:51.223Z,1004.69
2023-05-15T07:15:51.458Z,1004.69
2023-05-15T07:16:51.733Z,1004.60
2023-05-15T07:17:52.084Z,1004.66
2023-05-15T07:18:52.535Z,1004.52
2023-05-15T07:19:52.627Z,1004.55
2023-05-15T07:20:53.011Z,1004.51
2023-05-15T07:21:53.297Z,1004.52
2023-05-15T07:22:56.641Z,1004.51
2023-05-15T07:23:53.771Z,1004.39
2023-05-15T07:24:54.040Z,1004.40
2023-05-15T07:25:54.271Z,1004.43
2023-05-15T07:26:58.752Z,1004.37
2023-05-15T07:27:54.740Z,1004.37
2023-05-15T07:28:54.968Z,1004.44
2023-05-15T07:29:55.218Z,1004.35
2023-05-15T07:30:55.479Z,1004.41
2023-05-15T07:31:55.854Z,1004.35
2023-05-15T07:32:56.053Z,1004.35
2023-05-15T07:33:56.295Z,1004.41
2023-05-15T07:34:56.537Z,1004.36
2023-05-15T07:35:56.762Z,1004.35
2023-05-15T07:36:57.012Z,1004.37
2023-05-15T07:37:57.268Z,1004.35
2023-05-15T07:38:58.041Z,1004.34
2023-05-15T07:39:57.755Z,1004.28
2023-05-15T07:40:57.973Z,1004.27
2023-05-15T07:41:58.183Z,1004.20
2023-05-15T07:42:58.575Z,1004.21
2023-05-15T07:43:58.837Z,1004.16
2023-05-15T07:44:59.089Z,1004.20
2023-05-15T07:45:59.362Z,1004.16
2023-05-15T07:46:59.583Z,1004.17
2023-05-15T07:47:59.832Z,1004.12
2023-05-15T07:49:00.137Z,1004.11
2023-05-15T07:50:00.406Z,1004.08
2023-05-15T07:51:00.674Z,1004.05
2023-05-15T07:52:00.926Z,1003.96
2023-05-15T07:53:01.204Z,1003.97
2023-05-15T07:54:01.446Z,1003.92
2023-05-15T07:55:01.775Z,1003.94
2023-05-15T07:56:02.033Z,1003.95
2023-05-15T07:57:02.337Z,1003.92
2023-05-15T07:58:02.623Z,1003.89
2023-05-15T07:59:02.989Z,1003.87
2023-05-15T08:00:03.129Z,1003.79
2023-05-15T08:01:03.396Z,1003.80
2023-05-15T08:02:03.691Z,1003.79
2023-05-15T08:03:04.263Z,1003.80
2023-05-15T08:04:04.519Z,1003.75
2023-05-15T08:05:04.621Z,1003.77
2023-05-15T08:06:04.839Z,1003.69
2023-05-15T08:07:05.238Z,1003.69
2023-05-15T08:08:05.477Z,1003.73
2023-05-15T08:09:05.734Z,1003.71
2023-05-15T08:10:06.081Z,1003.70
2023-05-15T08:11:06.276Z,1003.78
2023-05-15T08:12:06.541Z,1003.77
2023-05-15T08:13:06.762Z,1003.81
2023-05-15T08:14:07.049Z,1003.77
2023-05-15T08:15:07.282Z,1003.79
2023-05-15T08:16:07.583Z,1003.83
2023-05-15T08:17:07.814Z,1003.81
2023-05-15T08:18:08.109Z,1003.85
2023-05-15T08:19:08.350Z,1003.83
2023-05-15T08:20:08.607Z,1003.80
2023-05-15T08:21:08.862Z,1003.79
2023-05-15T08:22:09.134Z,1003.83
2023-05-15T08:23:09.369Z,1003.85
2023-05-15T08:24:09.581Z,1003.75
2023-05-15T08:25:09.858Z,1003.73
2023-05-15T08:26:10.106Z,1003.71
2023-05-15T08:27:10.346Z,1003.71
2023-05-15T08:28:10.604Z,1003.74
2023-05-15T08:29:10.837Z,1003.73
2023-05-15T08:30:11.128Z,1003.73
2023-05-15T08:31:11.833Z,1003.71
2023-05-15T08:32:11.619Z,1003.76
2023-05-15T08:33:11.928Z,1003.69
2023-05-15T08:34:12.171Z,1003.69
2023-05-15T08:35:12.460Z,1003.64
2023-05-15T08:36:12.757Z,1003.64
2023-05-15T08:37:13.022Z,1003.68
2023-05-15T08:38:13.279Z,1003.59
2023-05-15T08:39:13.580Z,1003.59
2023-05-15T08:40:13.895Z,1003.58
2023-05-15T08:41:14.184Z,1003.61
2023-05-15T08:42:14.411Z,1003.65
2023-05-15T08:43:14.791Z,1003.58
2023-05-15T08:44:15.048Z,1003.62
2023-05-15T08:45:15.337Z,1003.56
2023-05-15T08:46:15.798Z,1003.58
2023-05-15T08:47:15.908Z,1003.54
2023-05-15T08:48:16.331Z,1003.58
2023-05-15T08:49:16.468Z,1003.56
2023-05-15T08:50:16.629Z,1003.54
2023-05-15T08:51:16.895Z,1003.52
2023-05-15T08:52:17.116Z,1003.44
2023-05-15T08:53:17.374Z,1003.40
2023-05-15T08:54:17.634Z,1003.43
2023-05-15T08:55:17.931Z,1003.45
2023-05-15T08:56:18.146Z,1003.49
2023-05-15T08:57:18.416Z,1003.51
2023-05-15T08:58:18.655Z,1003.52
2023-05-15T08:59:18.905Z,1003.54
2023-05-15T09:00:19.240Z,1003.50
2023-05-15T09:01:19.446Z,1003.55
2023-05-15T09:02:19.698Z,1003.51
2023-05-15T09:03:20.155Z,1003.48
2023-05-15T09:04:20.279Z,1003.46
2023-05-15T09:05:20.576Z,1003.46
2023-05-15T09:06:20.828Z,1003.45
2023-05-15T09:07:21.092Z,1003.45
2023-05-15T09:08:21.360Z,1003.49
2023-05-15T09:09:21.586Z,1003.48
2023-05-15T09:10:21.838Z,1003.52
2023-05-15T09:11:22.087Z,1003.47
2023-05-15T09:12:22.393Z,1003.44
2023-05-15T09:13:22.653Z,1003.45
2023-05-15T09:14:22.903Z,1003.46
2023-05-15T09:15:23.166Z,1003.48
2023-05-15T09:16:23.476Z,1003.48
2023-05-15T09:17:23.736Z,1003.51
2023-05-15T09:18:23.940Z,1003.45
2023-05-15T09:19:24.180Z,1003.48
2023-05-15T09:20:24.432Z,1003.48
2023-05-15T09:21:24.673Z,1003.52
2023-05-15T09:22:24.946Z,1003.48
2023-05-15T09:23:25.250Z,1003.48
2023-05-15T09:24:25.511Z,1003.53
2023-05-15T09:25:26.079Z,1003.48
2023-05-15T09:26:26.010Z,1003.52
2023-05-15T09:27:26.354Z,1003.50
2023-05-15T09:28:26.593Z,1003.55
2023-05-15T09:29:26.856Z,1003.49
2023-05-15T09:30:27.132Z,1003.46
2023-05-15T09:31:27.396Z,1003.53
2023-05-15T09:32:27.648Z,1003.45
2023-05-15T09:33:27.864Z,1003.48
2023-05-15T09:34:28.104Z,1003.45
2023-05-15T09:35:28.835Z,1003.53
2023-05-15T09:36:28.616Z,1003.49
2023-05-15T09:37:28.890Z,1003.52
2023-05-15T09:38:29.106Z,1003.51
2023-05-15T09:39:29.357Z,1003.45
2023-05-15T09:40:29.628Z,1003.44
2023-05-15T09:41:29.858Z,1003.53
2023-05-15T09:42:30.092Z,1003.46
2023-05-15T09:43:30.376Z,1003.44
2023-05-15T09:44:30.645Z,1003.50
2023-05-15T09:45:30.912Z,1003.45
2023-05-15T09:46:31.235Z,1003.47
2023-05-15T09:47:31.620Z,1003.49
2023-05-15T09:48:31.871Z,1003.52
2023-05-15T09:49:33.330Z,1003.45
2023-05-15T09:50:32.445Z,1003.46
2023-05-15T09:51:32.732Z,1003.49
2023-05-15T09:52:33.026Z,1003.51
2023-05-15T09:53:33.289Z,1003.44
2023-05-15T09:54:33.569Z,1003.40
2023-05-15T09:55:33.823Z,1003.45
2023-05-15T09:56:34.188Z,1003.39
2023-05-15T09:57:34.359Z,1003.43
2023-05-15T09:58:34.609Z,1003.42
2023-05-15T09:59:34.858Z,1003.40
2023-05-15T10:00:35.125Z,1003.40
2023-05-15T10:01:35.346Z,1003.38
2023-05-15T10:02:35.626Z,1003.41
2023-05-15T10:03:35.844Z,1003.42
2023-05-15T10:04:36.125Z,1003.40
2023-05-15T10:06:37.723Z,1003.44
2023-05-15T10:07:37.021Z,1003.43
2023-05-15T10:08:37.439Z,1003.49
2023-05-15T10:09:37.465Z,1003.47
2023-05-15T10:10:37.844Z,1003.45
2023-05-15T10:11:38.083Z,1003.39
2023-05-15T10:12:38.312Z,1003.37
2023-05-15T10:13:38.578Z,1003.31
2023-05-15T10:14:38.841Z,1003.42
2023-05-15T10:15:39.167Z,1003.38
2023-05-15T10:16:39.485Z,1003.33
2023-05-15T10:17:39.650Z,1003.33
2023-05-15T10:18:41.020Z,1003.32
2023-05-15T10:19:50.860Z,1003.31
2023-05-15T10:20:41.425Z,1003.32
2023-05-15T10:21:40.716Z,1003.36
2023-05-15T10:22:40.992Z,1003.28
2023-05-15T10:23:41.253Z,1003.26
2023-05-15T10:24:41.484Z,1003.23
2023-05-15T10:25:41.712Z,1003.18
2023-05-15T10:26:41.984Z,1003.21
2023-05-15T10:27:42.258Z,1003.18
2023-05-15T10:28:44.789Z,1003.23
2023-05-15T10:29:42.709Z,1003.16
2023-05-15T10:30:42.966Z,1003.18
2023-05-15T10:31:43.244Z,1003.17
2023-05-15T10:32:43.587Z,1003.15
2023-05-15T10:33:43.705Z,1003.17
2023-05-15T10:34:43.925Z,1003.15
2023-05-15T10:35:44.199Z,1003.10
2023-05-15T10:36:44.434Z,1003.08
2023-05-15T10:37:44.692Z,1003.09
2023-05-15T10:38:44.947Z,1003.10
2023-05-15T10:39:45.178Z,1003.07
2023-05-15T10:40:45.416Z,1003.07
2023-05-15T10:41:45.643Z,1003.10
2023-05-15T10:42:45.893Z,1003.10
2023-05-15T10:43:46.135Z,1003.11
2023-05-15T10:44:46.394Z,1003.09
2023-05-15T10:45:46.667Z,1003.10
2023-05-15T10:46:46.969Z,1002.98
2023-05-15T10:47:47.232Z,1002.94
2023-05-15T10:48:47.429Z,1002.93
2023-05-15T10:49:47.666Z,1002.92
2023-05-15T10:50:47.908Z,1002.89
2023-05-15T10:51:48.171Z,1002.91
2023-05-15T10:52:48.400Z,1002.88
2023-05-15T10:53:48.649Z,1002.85
2023-05-15T10:54:48.903Z,1002.84
2023-05-15T10:55:49.192Z,1002.84
2023-05-15T10:56:52.007Z,1002.83
2023-05-15T10:57:49.655Z,1002.77
2023-05-15T10:58:49.914Z,1002.71
2023-05-15T10:59:50.166Z,1002.72
2023-05-15T11:00:50.513Z,1002.68
2023-05-15T11:01:50.831Z,1002.60
2023-05-15T11:02:51.049Z,1002.62
2023-05-15T11:03:52.528Z,1002.55
2023-05-15T11:04:51.712Z,1002.60
2023-05-15T11:05:51.804Z,1002.56
2023-05-15T11:06:52.038Z,1002.51
2023-05-15T11:07:52.357Z,1002.49
2023-05-15T11:08:52.631Z,1002.54
2023-05-15T11:09:52.899Z,1002.43
2023-05-15T11:10:53.145Z,1002.48
2023-05-15T11:11:53.396Z,1002.52
2023-05-15T11:12:53.648Z,1002.46
2023-05-15T11:13:53.886Z,1002.37
2023-05-15T11:14:54.141Z,1002.36
2023-05-15T11:15:54.377Z,1002.49
2023-05-15T11:16:54.662Z,1002.52
2023-05-15T11:17:54.998Z,1002.41
2023-05-15T11:18:55.328Z,1002.34
2023-05-15T11:19:55.547Z,1002.36
2023-05-15T11:20:55.766Z,1002.34
2023-05-15T11:21:56.054Z,1002.30
2023-05-15T11:22:56.278Z,1002.23
2023-05-15T11:23:56.528Z,1002.22
2023-05-15T11:24:56.775Z,1002.18
2023-05-15T11:25:57.041Z,1002.19
2023-05-15T11:26:59.966Z,1002.15
2023-05-15T11:27:57.727Z,1002.16
2023-05-15T11:28:57.983Z,1002.16
2023-05-15T11:29:58.235Z,1002.15
2023-05-15T11:30:58.546Z,1002.12
2023-05-15T11:31:58.784Z,1002.11
2023-05-15T11:32:59.118Z,1002.17
2023-05-15T11:33:59.344Z,1002.18
2023-05-15T11:34:59.590Z,1002.17
2023-05-15T11:35:59.814Z,1002.22
2023-05-15T11:37:00.211Z,1002.24
2023-05-15T11:38:00.456Z,1002.30
2023-05-15T11:39:00.706Z,1002.34
2023-05-15T11:40:01.009Z,1002.43
2023-05-15T11:41:01.260Z,1002.77
2023-05-15T11:42:01.488Z,1002.57
2023-05-15T11:43:01.838Z,1002.72
2023-05-15T11:44:02.161Z,1002.90
2023-05-15T11:45:02.573Z,1002.80
2023-05-15T11:46:02.812Z,1002.77
2023-05-15T11:47:03.106Z,1002.93
2023-05-15T11:48:03.356Z,1002.91
2023-05-15T11:49:03.573Z,1002.95
2023-05-15T11:50:03.994Z,1002.89
2023-05-15T11:51:04.188Z,1003.06
2023-05-15T11:52:04.284Z,1002.96
2023-05-15T11:53:04.530Z,1003.01
2023-05-15T11:54:06.271Z,1003.13
2023-05-15T11:55:05.060Z,1003.16
2023-05-15T11:56:05.318Z,1003.22
2023-05-15T11:57:05.565Z,1003.25
2023-05-15T11:58:05.787Z,1003.26
2023-05-15T11:59:06.148Z,1003.34
2023-05-15T12:00:06.376Z,1003.30
2023-05-15T12:01:07.405Z,1003.37
2023-05-15T12:02:06.930Z,1003.34
2023-05-15T12:03:07.240Z,1003.43
2023-05-15T12:04:07.554Z,1003.36
2023-05-15T12:05:07.925Z,1003.38
2023-05-15T12:06:08.022Z,1003.33
2023-05-15T12:07:08.384Z,1003.40
2023-05-15T12:08:08.614Z,1003.38
2023-05-15T12:09:08.873Z,1003.36
2023-05-15T12:10:09.095Z,1003.34